Time,TemperatureF,DewpointF,PressureIn,WindDirection,WindDirectionDegrees,WindSpeedMPH,WindSpeedGustMPH,Humidity,HourlyPrecipIn,Conditions,Clouds,dailyrainin,SoftwareType,DateUTC
2013-05-06 00:02:00,64.0,63.0,29.94,SSE,157,0.0,-999.0,95,-99.99,,,-99.99,,2013-05-06 10:02:00,
2013-05-06 00:12:00,64.0,63.0,29.94,SSE,157,0.0,-999.0,95,-99.99,,,-99.99,,2013-05-06 10:12:00,
2013-05-06 00:22:00,63.0,62.0,29.93,SSE,157,0.0,-999.0,95,-99.99,,,-99.99,,2013-05-06 10:22:00,
2013-05-06 00:32:00,63.0,62.0,29.93,SSE,157,0.0,-999.0,96,-99.99,,,-99.99,,2013-05-06 10:32:00,
2013-05-06 00:41:00,63.0,62.0,29.93,SSE,157,0.0,-999.0,96,-99.99,,,-99.99,,2013-05-06 10:41:00,
2013-05-06 00:52:00,63.0,62.0,29.93,SSE,157,0.0,-999.0,96,-99.99,,,-99.99,,2013-05-06 10:52:00,
2013-05-06 01:02:00,63.0,62.0,29.92,SSE,157,0.0,-999.0,96,-99.99,,,-99.99,,2013-05-06 11:02:00,
2013-05-06 01:11:00,63.0,62.0,29.92,SSE,157,0.0,-999.0,96,-99.99,,,-99.99,,2013-05-06 11:11:00,
2013-05-06 01:22:00,63.0,62.0,29.92,SSE,157,0.0,-999.0,96,-99.99,,,-99.99,,2013-05-06 11:22:00,
2013-05-06 01:31:00,64.0,63.0,29.91,South,172,0.0,-999.0,97,-99.99,,,-99.99,,2013-05-06 11:31:00,
2013-05-06 01:41:00,64.0,63.0,29.91,South,172,0.0,-999.0,97,-99.99,,,-99.99,,2013-05-06 11:41:00,
2013-05-06 01:52:00,65.0,64.0,29.91,South,178,1.0,-999.0,97,-99.99,,,-99.99,,2013-05-06 11:52:00,
2013-05-06 02:01:00,66.0,64.0,29.90,South,184,1.0,-999.0,94,-99.99,,,-99.99,,2013-05-06 12:01:00,
2013-05-06 02:12:00,66.0,64.0,29.90,South,184,1.0,-999.0,94,-99.99,,,-99.99,,2013-05-06 12:12:00,
2013-05-06 02:21:00,67.0,65.0,29.90,SSW,204,0.0,-999.0,93,-99.99,,,-99.99,,2013-05-06 12:21:00,
2013-05-06 02:31:00,66.0,64.0,29.89,SSW,203,0.0,-999.0,92,-99.99,,,-99.99,,2013-05-06 12:31:00,
2013-05-06 02:41:00,66.0,64.0,29.89,SSW,203,0.0,-999.0,92,-99.99,,,-99.99,,2013-05-06 12:41:00,
2013-05-06 02:51:00,66.0,64.0,29.89,SSW,203,0.0,-999.0,93,-99.99,,,-99.99,,2013-05-06 12:51:00,
2013-05-06 03:01:00,65.0,63.0,29.89,SSW,203,0.0,-999.0,93,-99.99,,,-99.99,,2013-05-06 13:01:00,
2013-05-06 03:11:00,65.0,63.0,29.89,SSW,203,0.0,-999.0,93,-99.99,,,-99.99,,2013-05-06 13:11:00,
2013-05-06 03:21:00,65.0,63.0,29.89,SSW,203,0.0,-999.0,93,-99.99,,,-99.99,,2013-05-06 13:21:00,
2013-05-06 03:31:00,64.0,62.0,29.88,SSW,203,0.0,-999.0,94,-99.99,,,-99.99,,2013-05-06 13:31:00,
2013-05-06 03:42:00,64.0,62.0,29.88,SSW,203,0.0,-999.0,94,-99.99,,,-99.99,,2013-05-06 13:42:00,
2013-05-06 03:52:00,64.0,63.0,29.88,SSW,203,0.0,-999.0,95,-99.99,,,-99.99,,2013-05-06 13:52:00,
2013-05-06 04:01:00,64.0,63.0,29.89,SSW,203,0.0,-999.0,96,-99.99,,,-99.99,,2013-05-06 14:01:00,
2013-05-06 04:11:00,64.0,63.0,29.89,SSW,203,0.0,-999.0,96,-99.99,,,-99.99,,2013-05-06 14:11:00,
2013-05-06 04:21:00,64.0,63.0,29.89,SSW,203,0.0,-999.0,96,-99.99,,,-99.99,,2013-05-06 14:21:00,
2013-05-06 04:32:00,64.0,63.0,29.89,SSW,203,0.0,-999.0,96,-99.99,,,-99.99,,2013-05-06 14:32:00,
2013-05-06 04:42:00,64.0,63.0,29.89,SSW,203,0.0,-999.0,96,-99.99,,,-99.99,,2013-05-06 14:42:00,
2013-05-06 04:51:00,63.0,62.0,29.89,SSW,203,0.0,-999.0,96,-99.99,,,-99.99,,2013-05-06 14:51:00,
2013-05-06 05:01:00,63.0,62.0,29.89,SSW,203,0.0,-999.0,96,-99.99,,,-99.99,,2013-05-06 15:01:00,
2013-05-06 05:11:00,63.0,62.0,29.89,SSW,203,0.0,-999.0,96,-99.99,,,-99.99,,2013-05-06 15:11:00,
2013-05-06 05:21:00,63.0,62.0,29.89,SSW,203,0.0,-999.0,96,-99.99,,,-99.99,,2013-05-06 15:21:00,
2013-05-06 05:33:00,62.0,61.0,29.90,SSW,203,0.0,-999.0,97,-99.99,,,-99.99,,2013-05-06 15:33:00,
2013-05-06 05:42:00,62.0,61.0,29.90,SSW,203,0.0,-999.0,97,-99.99,,,-99.99,,2013-05-06 15:42:00,
2013-05-06 05:53:00,62.0,61.0,29.91,SSW,203,0.0,-999.0,97,-99.99,,,-99.99,,2013-05-06 15:53:00,
2013-05-06 06:03:00,62.0,61.0,29.91,SSW,203,0.0,-999.0,97,-99.99,,,-99.99,,2013-05-06 16:03:00,
2013-05-06 06:13:00,62.0,61.0,29.91,SSW,203,0.0,-999.0,97,-99.99,,,-99.99,,2013-05-06 16:13:00,
2013-05-06 06:22:00,63.0,62.0,29.91,SSW,203,0.0,-999.0,96,-99.99,,,-99.99,,2013-05-06 16:22:00,
2013-05-06 06:32:00,63.0,62.0,29.91,SSW,203,0.0,-999.0,96,-99.99,,,-99.99,,2013-05-06 16:32:00,
2013-05-06 06:41:00,63.0,62.0,29.91,SSW,203,0.0,-999.0,96,-99.99,,,-99.99,,2013-05-06 16:41:00,
2013-05-06 06:52:00,64.0,62.0,29.91,SSW,203,0.0,-999.0,94,-99.99,,,-99.99,,2013-05-06 16:52:00,
2013-05-06 07:02:00,65.0,62.0,29.92,SSW,203,0.0,-999.0,91,-99.99,,,-99.99,,2013-05-06 17:02:00,
2013-05-06 07:12:00,65.0,62.0,29.92,SSW,203,0.0,-999.0,91,-99.99,,,-99.99,,2013-05-06 17:12:00,
2013-05-06 07:22:00,66.0,63.0,29.92,SSW,203,0.0,-999.0,89,-99.99,,,-99.99,,2013-05-06 17:22:00,
2013-05-06 07:31:00,68.0,64.0,29.92,SSW,203,0.0,-999.0,86,-99.99,,,-99.99,,2013-05-06 17:31:00,
2013-05-06 07:42:00,68.0,64.0,29.92,SSW,203,0.0,-999.0,86,-99.99,,,-99.99,,2013-05-06 17:42:00,
2013-05-06 07:52:00,70.0,65.0,29.93,SSW,203,0.0,-999.0,83,-99.99,,,-99.99,,2013-05-06 17:52:00,
2013-05-06 08:01:00,73.0,66.0,29.93,SSW,203,0.0,-999.0,80,-99.99,,,-99.99,,2013-05-06 18:01:00,
2013-05-06 08:11:00,73.0,66.0,29.93,SSW,203,0.0,-999.0,80,-99.99,,,-99.99,,2013-05-06 18:11:00,
2013-05-06 08:21:00,75.0,67.0,29.94,SSW,203,0.0,-999.0,76,-99.99,,,-99.99,,2013-05-06 18:21:00,
2013-05-06 08:31:00,77.0,68.0,29.94,SSW,203,0.0,-999.0,73,-99.99,,,-99.99,,2013-05-06 18:31:00,
2013-05-06 08:42:00,77.0,68.0,29.94,SSW,203,0.0,-999.0,73,-99.99,,,-99.99,,2013-05-06 18:42:00,
2013-05-06 08:52:00,80.0,69.0,29.94,SSW,203,0.0,-999.0,69,-99.99,,,-99.99,,2013-05-06 18:52:00,
2013-05-06 09:01:00,81.0,69.0,29.93,SSW,203,0.0,-999.0,67,-99.99,,,-99.99,,2013-05-06 19:01:00,
2013-05-06 09:11:00,81.0,69.0,29.93,SSW,203,0.0,-999.0,67,-99.99,,,-99.99,,2013-05-06 19:11:00,
2013-05-06 09:21:00,80.0,67.0,29.94,NNE,13,1.0,-999.0,64,-99.99,,,-99.99,,2013-05-06 19:21:00,
2013-05-06 09:32:00,81.0,68.0,29.94,North,355,0.0,-999.0,64,-99.99,,,-99.99,,2013-05-06 19:32:00,
2013-05-06 09:41:00,81.0,68.0,29.94,North,355,0.0,-999.0,64,-99.99,,,-99.99,,2013-05-06 19:41:00,
2013-05-06 09:52:00,82.0,69.0,29.94,NNW,340,0.0,-999.0,64,-99.99,,,-99.99,,2013-05-06 19:52:00,
2013-05-06 10:01:00,82.0,66.0,29.94,NE,36,0.0,-999.0,59,-99.99,,,-99.99,,2013-05-06 20:01:00,
2013-05-06 10:11:00,82.0,66.0,29.94,NE,36,0.0,-999.0,59,-99.99,,,-99.99,,2013-05-06 20:11:00,
2013-05-06 10:21:00,80.0,68.0,29.94,NNE,25,2.0,-999.0,68,-99.99,,,-99.99,,2013-05-06 20:21:00,
2013-05-06 10:32:00,79.0,68.0,29.94,North,5,2.0,-999.0,69,-99.99,,,-99.99,,2013-05-06 20:32:00,
2013-05-06 10:41:00,79.0,68.0,29.94,North,5,2.0,-999.0,69,-99.99,,,-99.99,,2013-05-06 20:41:00,
2013-05-06 10:52:00,78.0,68.0,29.93,North,11,3.0,-999.0,71,-99.99,,,-99.99,,2013-05-06 20:52:00,
2013-05-06 11:01:00,80.0,69.0,29.93,NE,51,3.0,-999.0,70,-99.99,,,-99.99,,2013-05-06 21:01:00,
2013-05-06 11:11:00,80.0,69.0,29.93,NE,51,3.0,-999.0,70,-99.99,,,-99.99,,2013-05-06 21:11:00,
2013-05-06 11:21:00,81.0,69.0,29.93,North,355,1.0,-999.0,66,-99.99,,,-99.99,,2013-05-06 21:21:00,
2013-05-06 11:32:00,82.0,69.0,29.92,NNW,332,2.0,-999.0,65,-99.99,,,-99.99,,2013-05-06 21:32:00,
2013-05-06 11:42:00,82.0,69.0,29.92,NNW,332,2.0,-999.0,65,-99.99,,,-99.99,,2013-05-06 21:42:00,
2013-05-06 11:53:00,83.0,69.0,29.92,North,349,3.0,-999.0,63,-99.99,,,-99.99,,2013-05-06 21:53:00,
2013-05-06 12:02:00,82.0,68.0,29.92,NNE,28,2.0,-999.0,63,-99.99,,,-99.99,,2013-05-06 22:02:00,
2013-05-06 12:12:00,82.0,68.0,29.92,NNE,28,2.0,-999.0,63,-99.99,,,-99.99,,2013-05-06 22:12:00,
2013-05-06 12:22:00,82.0,69.0,29.91,NNE,24,1.0,-999.0,66,-99.99,,,-99.99,,2013-05-06 22:22:00,
2013-05-06 12:33:00,82.0,69.0,29.91,North,360,2.0,-999.0,65,-99.99,,,-99.99,,2013-05-06 22:33:00,
2013-05-06 12:45:00,82.0,69.0,29.91,North,360,2.0,-999.0,65,-99.99,,,-99.99,,2013-05-06 22:45:00,
2013-05-06 12:52:00,82.0,69.0,29.91,NNE,26,3.0,-999.0,65,-99.99,,,-99.99,,2013-05-06 22:52:00,
2013-05-06 13:02:00,83.0,68.0,29.90,North,355,2.0,-999.0,60,-99.99,,,-99.99,,2013-05-06 23:02:00,
2013-05-06 13:11:00,83.0,68.0,29.90,North,355,2.0,-999.0,60,-99.99,,,-99.99,,2013-05-06 23:11:00,
2013-05-06 13:22:00,82.0,68.0,29.89,NNE,22,1.0,-999.0,63,-99.99,,,-99.99,,2013-05-06 23:22:00,
2013-05-06 13:31:00,83.0,69.0,29.89,NNE,26,0.0,-999.0,63,-99.99,,,-99.99,,2013-05-06 23:31:00,
2013-05-06 13:41:00,83.0,69.0,29.89,NNE,26,0.0,-999.0,63,-99.99,,,-99.99,,2013-05-06 23:41:00,
2013-05-06 13:52:00,83.0,68.0,29.88,North,355,2.0,-999.0,61,-99.99,,,-99.99,,2013-05-06 23:52:00,
2013-05-06 14:01:00,81.0,67.0,29.88,NNE,24,1.0,-999.0,63,-99.99,,,-99.99,,2013-05-07 00:01:00,
2013-05-06 14:11:00,81.0,67.0,29.88,NNE,24,1.0,-999.0,63,-99.99,,,-99.99,,2013-05-07 00:11:00,
2013-05-06 14:21:00,80.0,68.0,29.87,East,93,1.0,-999.0,66,-99.99,,,-99.99,,2013-05-07 00:21:00,
2013-05-06 14:31:00,81.0,67.0,29.87,NNE,16,1.0,-999.0,63,-99.99,,,-99.99,,2013-05-07 00:31:00,
2013-05-06 14:41:00,81.0,67.0,29.87,NNE,16,1.0,-999.0,63,-99.99,,,-99.99,,2013-05-07 00:41:00,
2013-05-06 14:51:00,79.0,67.0,29.87,NE,34,1.0,-999.0,67,-99.99,,,-99.99,,2013-05-07 00:51:00,
2013-05-06 15:01:00,80.0,67.0,29.87,NNE,14,1.0,-999.0,64,-99.99,,,-99.99,,2013-05-07 01:01:00,
2013-05-06 15:11:00,80.0,67.0,29.87,NNE,14,1.0,-999.0,64,-99.99,,,-99.99,,2013-05-07 01:11:00,
2013-05-06 15:21:00,79.0,66.0,29.87,NNE,21,0.0,-999.0,64,-99.99,,,-99.99,,2013-05-07 01:21:00,
2013-05-06 15:31:00,78.0,67.0,29.88,NE,48,1.0,-999.0,68,-99.99,,,-99.99,,2013-05-07 01:31:00,
2013-05-06 15:41:00,78.0,67.0,29.88,NE,48,1.0,-999.0,68,-99.99,,,-99.99,,2013-05-07 01:41:00,
2013-05-06 15:52:00,78.0,67.0,29.87,NNE,32,0.0,-999.0,69,-99.99,,,-99.99,,2013-05-07 01:52:00,
2013-05-06 16:02:00,78.0,67.0,29.87,NNE,30,0.0,-999.0,69,-99.99,,,-99.99,,2013-05-07 02:02:00,
2013-05-06 16:11:00,78.0,67.0,29.87,NNE,30,0.0,-999.0,69,-99.99,,,-99.99,,2013-05-07 02:11:00,
2013-05-06 16:21:00,79.0,66.0,29.87,NNW,348,0.0,-999.0,64,-99.99,,,-99.99,,2013-05-07 02:21:00,
2013-05-06 16:31:00,79.0,68.0,29.87,NNW,343,0.0,-999.0,68,-99.99,,,-99.99,,2013-05-07 02:31:00,
2013-05-06 16:41:00,79.0,68.0,29.87,NNW,343,0.0,-999.0,68,-99.99,,,-99.99,,2013-05-07 02:41:00,
2013-05-06 16:51:00,79.0,67.0,29.87,NNW,344,0.0,-999.0,67,-99.99,,,-99.99,,2013-05-07 02:51:00,
2013-05-06 17:01:00,78.0,67.0,29.87,NNW,344,0.0,-999.0,68,-99.99,,,-99.99,,2013-05-07 03:01:00,
2013-05-06 17:11:00,78.0,67.0,29.87,NNW,344,0.0,-999.0,68,-99.99,,,-99.99,,2013-05-07 03:11:00,
2013-05-06 17:21:00,78.0,66.0,29.88,North,350,0.0,-999.0,67,-99.99,,,-99.99,,2013-05-07 03:21:00,
2013-05-06 17:32:00,78.0,67.0,29.88,North,350,0.0,-999.0,70,-99.99,,,-99.99,,2013-05-07 03:32:00,
2013-05-06 17:42:00,78.0,67.0,29.88,North,350,0.0,-999.0,70,-99.99,,,-99.99,,2013-05-07 03:42:00,
2013-05-06 17:53:00,77.0,67.0,29.88,North,350,0.0,-999.0,71,-99.99,,,-99.99,,2013-05-07 03:53:00,
2013-05-06 18:02:00,77.0,67.0,29.88,North,350,0.0,-999.0,72,-99.99,,,-99.99,,2013-05-07 04:02:00,
2013-05-06 18:12:00,77.0,67.0,29.88,North,350,0.0,-999.0,72,-99.99,,,-99.99,,2013-05-07 04:12:00,
2013-05-06 18:23:00,76.0,67.0,29.89,North,350,0.0,-999.0,74,-99.99,,,-99.99,,2013-05-07 04:23:00,
2013-05-06 18:33:00,76.0,67.0,29.90,North,350,0.0,-999.0,75,-99.99,,,-99.99,,2013-05-07 04:33:00,
2013-05-06 18:42:00,76.0,67.0,29.90,North,350,0.0,-999.0,75,-99.99,,,-99.99,,2013-05-07 04:42:00,
2013-05-06 18:52:00,75.0,67.0,29.90,North,350,0.0,-999.0,76,-99.99,,,-99.99,,2013-05-07 04:52:00,
2013-05-06 19:02:00,74.0,67.0,29.91,North,350,0.0,-999.0,78,-99.99,,,-99.99,,2013-05-07 05:02:00,
2013-05-06 19:12:00,74.0,67.0,29.91,North,350,0.0,-999.0,78,-99.99,,,-99.99,,2013-05-07 05:12:00,
2013-05-06 19:22:00,73.0,66.0,29.91,North,350,0.0,-999.0,80,-99.99,,,-99.99,,2013-05-07 05:22:00,
2013-05-06 19:32:00,71.0,66.0,29.92,North,350,0.0,-999.0,84,-99.99,,,-99.99,,2013-05-07 05:32:00,
2013-05-06 19:42:00,71.0,66.0,29.92,North,350,0.0,-999.0,84,-99.99,,,-99.99,,2013-05-07 05:42:00,
2013-05-06 19:51:00,70.0,66.0,29.92,North,350,0.0,-999.0,87,-99.99,,,-99.99,,2013-05-07 05:51:00,
2013-05-06 20:02:00,69.0,66.0,29.93,North,350,0.0,-999.0,89,-99.99,,,-99.99,,2013-05-07 06:02:00,
2013-05-06 20:11:00,69.0,66.0,29.93,North,350,0.0,-999.0,89,-99.99,,,-99.99,,2013-05-07 06:11:00,
2013-05-06 20:21:00,69.0,66.0,29.94,North,350,0.0,-999.0,90,-99.99,,,-99.99,,2013-05-07 06:21:00,
2013-05-06 20:32:00,69.0,66.0,29.95,North,350,0.0,-999.0,90,-99.99,,,-99.99,,2013-05-07 06:32:00,
2013-05-06 20:41:00,69.0,66.0,29.95,North,350,0.0,-999.0,90,-99.99,,,-99.99,,2013-05-07 06:41:00,
2013-05-06 20:52:00,68.0,65.0,29.96,North,350,0.0,-999.0,91,-99.99,,,-99.99,,2013-05-07 06:52:00,
2013-05-06 21:01:00,68.0,66.0,29.96,North,350,0.0,-999.0,92,-99.99,,,-99.99,,2013-05-07 07:01:00,
2013-05-06 21:11:00,68.0,66.0,29.96,North,350,0.0,-999.0,92,-99.99,,,-99.99,,2013-05-07 07:11:00,
2013-05-06 21:22:00,67.0,65.0,29.96,North,350,0.0,-999.0,93,-99.99,,,-99.99,,2013-05-07 07:22:00,
2013-05-06 21:31:00,67.0,65.0,29.97,North,350,0.0,-999.0,93,-99.99,,,-99.99,,2013-05-07 07:31:00,
2013-05-06 21:42:00,67.0,65.0,29.97,North,350,0.0,-999.0,93,-99.99,,,-99.99,,2013-05-07 07:42:00,
2013-05-06 21:52:00,67.0,65.0,29.97,North,350,0.0,-999.0,94,-99.99,,,-99.99,,2013-05-07 07:52:00,
2013-05-06 22:02:00,67.0,65.0,29.97,North,350,0.0,-999.0,94,-99.99,,,-99.99,,2013-05-07 08:02:00,
2013-05-06 22:11:00,67.0,65.0,29.97,North,350,0.0,-999.0,94,-99.99,,,-99.99,,2013-05-07 08:11:00,
2013-05-06 22:21:00,67.0,66.0,29.97,North,350,0.0,-999.0,95,-99.99,,,-99.99,,2013-05-07 08:21:00,
2013-05-06 22:31:00,67.0,66.0,29.98,North,350,0.0,-999.0,95,-99.99,,,-99.99,,2013-05-07 08:31:00,
2013-05-06 22:41:00,67.0,66.0,29.98,North,350,0.0,-999.0,95,-99.99,,,-99.99,,2013-05-07 08:41:00,
2013-05-06 22:52:00,66.0,65.0,29.98,North,350,0.0,-999.0,95,-99.99,,,-99.99,,2013-05-07 08:52:00,
2013-05-06 23:01:00,66.0,65.0,29.98,North,350,0.0,-999.0,95,-99.99,,,-99.99,,2013-05-07 09:01:00,
2013-05-06 23:11:00,66.0,65.0,29.98,North,350,0.0,-999.0,95,-99.99,,,-99.99,,2013-05-07 09:11:00,
2013-05-06 23:22:00,66.0,65.0,29.97,North,350,0.0,-999.0,96,-99.99,,,-99.99,,2013-05-07 09:22:00,
2013-05-06 23:33:00,66.0,65.0,29.97,North,350,0.0,-999.0,95,-99.99,,,-99.99,,2013-05-07 09:33:00,
2013-05-06 23:42:00,66.0,65.0,29.97,North,350,0.0,-999.0,95,-99.99,,,-99.99,,2013-05-07 09:42:00,
2013-05-06 23:52:00,65.0,64.0,29.96,North,350,0.0,-999.0,96,-99.99,,,-99.99,,2013-05-07 09:52:00,